createdAt,value
2022-10-05T00:01:40.751Z,12.75
2022-10-05T00:04:25.366Z,12.70
2022-10-05T00:07:10.029Z,12.69
2022-10-05T00:09:54.827Z,12.70
2022-10-05T00:12:39.566Z,12.67
2022-10-05T00:15:24.520Z,12.71
2022-10-05T00:18:09.239Z,12.64
2022-10-05T00:20:54.103Z,12.57
2022-10-05T00:23:39.075Z,12.66
2022-10-05T00:26:23.815Z,12.73
2022-10-05T00:29:08.602Z,12.70
2022-10-05T00:31:53.352Z,12.70
2022-10-05T00:34:38.577Z,12.71
2022-10-05T00:37:23.183Z,12.70
2022-10-05T00:40:08.022Z,12.72
2022-10-05T00:42:52.777Z,12.70
2022-10-05T00:45:37.562Z,12.73
2022-10-05T00:48:22.335Z,12.72
2022-10-05T00:51:07.111Z,12.68
2022-10-05T00:53:51.829Z,12.72
2022-10-05T00:56:36.555Z,12.72
2022-10-05T00:59:21.330Z,12.71
2022-10-05T01:02:06.103Z,12.70
2022-10-05T01:04:50.790Z,12.75
2022-10-05T01:07:35.461Z,12.74
2022-10-05T01:10:20.332Z,12.74
2022-10-05T01:13:04.962Z,12.73
2022-10-05T01:15:49.667Z,12.69
2022-10-05T01:18:34.504Z,12.69
2022-10-05T01:21:19.275Z,12.72
2022-10-05T01:24:04.188Z,12.68
2022-10-05T01:26:49.174Z,12.67
2022-10-05T01:29:34.320Z,12.62
2022-10-05T01:32:18.936Z,12.60
2022-10-05T01:35:03.773Z,12.56
2022-10-05T01:37:48.647Z,12.50
2022-10-05T01:40:33.420Z,12.40
2022-10-05T01:43:18.192Z,12.37
2022-10-05T01:46:02.941Z,12.36
2022-10-05T01:48:47.815Z,12.36
2022-10-05T01:51:32.625Z,12.30
2022-10-05T01:54:17.500Z,12.29
2022-10-05T01:57:02.205Z,12.36
2022-10-05T01:59:47.072Z,12.31
2022-10-05T02:02:31.848Z,12.32
2022-10-05T02:05:17.025Z,12.37
2022-10-05T02:08:01.747Z,12.37
2022-10-05T02:10:46.539Z,12.40
2022-10-05T02:13:31.191Z,12.41
2022-10-05T02:16:16.004Z,12.36
2022-10-05T02:19:01.325Z,12.30
2022-10-05T02:21:45.927Z,12.26
2022-10-05T02:24:30.687Z,12.26
2022-10-05T02:27:15.395Z,12.30
2022-10-05T02:30:00.131Z,12.31
2022-10-05T02:32:44.848Z,12.34
2022-10-05T02:35:29.670Z,12.31
2022-10-05T02:38:14.321Z,12.28
2022-10-05T02:40:59.109Z,12.32
2022-10-05T02:43:44.123Z,12.32
2022-10-05T02:46:28.859Z,12.36
2022-10-05T02:49:13.683Z,12.32
2022-10-05T02:51:58.283Z,12.34
2022-10-05T02:54:43.246Z,12.32
2022-10-05T02:57:27.912Z,12.28
2022-10-05T03:00:12.656Z,12.28
2022-10-05T03:02:57.293Z,12.26
2022-10-05T03:05:42.123Z,12.24
2022-10-05T03:08:26.823Z,12.20
2022-10-05T03:11:11.683Z,12.18
2022-10-05T03:13:56.489Z,12.14
2022-10-05T03:16:41.097Z,12.15
2022-10-05T03:19:26.025Z,12.14
2022-10-05T03:22:10.884Z,12.19
2022-10-05T03:24:55.639Z,12.17
2022-10-05T03:27:40.344Z,12.22
2022-10-05T03:30:25.099Z,12.19
2022-10-05T03:33:09.838Z,12.16
2022-10-05T03:35:54.727Z,12.10
2022-10-05T03:38:39.461Z,12.09
2022-10-05T03:41:24.257Z,12.08
2022-10-05T03:44:08.996Z,12.11
2022-10-05T03:46:53.665Z,12.12
2022-10-05T03:49:38.467Z,12.12
2022-10-05T03:52:23.251Z,12.09
2022-10-05T03:55:08.012Z,12.05
2022-10-05T03:57:52.697Z,12.03
2022-10-05T04:00:37.459Z,12.02
2022-10-05T04:03:22.271Z,11.96
2022-10-05T04:06:06.953Z,12.00
2022-10-05T04:08:51.586Z,12.03
2022-10-05T04:11:36.412Z,12.04
2022-10-05T04:14:21.165Z,12.07
2022-10-05T04:17:05.886Z,12.03
2022-10-05T04:19:50.793Z,12.07
2022-10-05T04:22:35.405Z,12.11
2022-10-05T04:25:20.369Z,12.09
2022-10-05T04:28:05.187Z,12.07
2022-10-05T04:30:50.042Z,12.05
2022-10-05T04:33:34.634Z,12.01
2022-10-05T04:36:19.400Z,12.01
2022-10-05T04:39:04.167Z,12.01
2022-10-05T04:41:49.001Z,12.04
2022-10-05T04:44:33.835Z,12.02
2022-10-05T04:47:18.665Z,11.97
2022-10-05T04:50:03.485Z,11.95
2022-10-05T04:52:48.144Z,11.95
2022-10-05T04:55:32.828Z,11.88
2022-10-05T04:58:17.489Z,11.87
2022-10-05T05:01:02.429Z,11.88
2022-10-05T05:03:47.189Z,11.92
2022-10-05T05:06:32.362Z,11.87
2022-10-05T05:09:17.171Z,11.80
2022-10-05T05:12:01.969Z,11.83
2022-10-05T05:14:46.777Z,11.82
2022-10-05T05:17:31.460Z,11.87
2022-10-05T05:20:16.249Z,11.84
2022-10-05T05:23:01.033Z,11.81
2022-10-05T05:25:45.826Z,11.88
2022-10-05T05:28:30.603Z,11.91
2022-10-05T05:31:15.348Z,12.00
2022-10-05T05:33:59.977Z,12.03
2022-10-05T05:36:45.073Z,12.06
2022-10-05T05:39:30.345Z,12.04
2022-10-05T05:42:14.995Z,12.01
2022-10-05T05:44:59.895Z,11.99
2022-10-05T05:47:44.684Z,11.98
2022-10-05T05:50:29.689Z,11.95
2022-10-05T05:53:14.380Z,11.95
2022-10-05T05:55:59.367Z,11.96
2022-10-05T05:58:44.025Z,11.94
2022-10-05T06:01:33.531Z,11.99
2022-10-05T06:04:18.795Z,12.02
2022-10-05T06:07:03.628Z,11.95
2022-10-05T06:09:48.312Z,11.94
2022-10-05T06:12:33.098Z,11.88
2022-10-05T06:15:17.734Z,11.86
2022-10-05T06:18:02.632Z,11.78
2022-10-05T06:20:47.243Z,11.75
2022-10-05T06:23:32.122Z,11.78
2022-10-05T06:26:16.859Z,11.79
2022-10-05T06:29:01.571Z,11.75
2022-10-05T06:31:46.288Z,11.77
2022-10-05T06:34:31.171Z,11.79
2022-10-05T06:37:15.965Z,11.83
2022-10-05T06:40:01.377Z,11.88
2022-10-05T06:42:46.616Z,15.31
2022-10-05T06:45:31.415Z,17.95
2022-10-05T06:48:16.048Z,19.75
2022-10-05T06:51:00.795Z,21.27
2022-10-05T06:53:45.539Z,22.52
2022-10-05T06:56:30.333Z,23.48
2022-10-05T06:59:14.894Z,24.23
2022-10-05T07:01:59.602Z,24.90
2022-10-05T07:04:44.370Z,25.37
2022-10-05T07:07:29.115Z,25.80
2022-10-05T07:10:13.737Z,26.14
2022-10-05T07:12:58.427Z,26.27
2022-10-05T07:15:43.290Z,25.99
2022-10-05T07:18:28.012Z,24.13
2022-10-05T07:21:12.864Z,21.40
2022-10-05T07:23:57.572Z,19.40
2022-10-05T07:26:42.364Z,18.23
2022-10-05T07:29:27.203Z,17.49
2022-10-05T07:32:11.918Z,17.16
2022-10-05T07:34:56.632Z,16.84
2022-10-05T07:37:41.369Z,16.79
2022-10-05T07:40:26.189Z,16.83
2022-10-05T07:43:10.862Z,16.86
2022-10-05T07:45:55.679Z,16.95
2022-10-05T07:48:40.405Z,17.00
2022-10-05T07:51:25.373Z,17.10
2022-10-05T07:54:10.202Z,17.16
2022-10-05T07:56:54.850Z,17.26
2022-10-05T07:59:39.704Z,17.32
2022-10-05T08:02:24.442Z,17.37
2022-10-05T08:05:09.588Z,17.45
2022-10-05T08:07:54.593Z,17.51
2022-10-05T08:10:39.277Z,17.57
2022-10-05T08:13:24.137Z,17.65
2022-10-05T08:16:08.917Z,17.74
2022-10-05T08:18:53.877Z,17.64
2022-10-05T08:21:38.635Z,17.62
2022-10-05T08:24:23.440Z,17.52
2022-10-05T08:27:08.199Z,17.44
2022-10-05T08:29:52.958Z,17.51
2022-10-05T08:32:37.694Z,17.62
2022-10-05T08:35:22.627Z,17.70
2022-10-05T08:38:07.252Z,17.67
2022-10-05T08:40:51.960Z,17.74
2022-10-05T08:43:36.664Z,17.87
2022-10-05T08:46:21.503Z,18.01
2022-10-05T08:49:06.179Z,18.10
2022-10-05T08:51:50.882Z,18.15
2022-10-05T08:54:35.664Z,18.29
2022-10-05T08:57:20.340Z,18.28
2022-10-05T09:00:05.167Z,18.11
2022-10-05T09:02:49.977Z,18.10
2022-10-05T09:05:34.764Z,17.91
2022-10-05T09:08:19.456Z,17.90
2022-10-05T09:11:04.184Z,18.00
2022-10-05T09:13:48.940Z,17.93
2022-10-05T09:16:33.685Z,17.96
2022-10-05T09:19:18.375Z,18.05
2022-10-05T09:22:03.089Z,18.11
2022-10-05T09:24:48.699Z,18.36
2022-10-05T09:27:33.503Z,18.53
2022-10-05T09:30:18.329Z,18.65
2022-10-05T09:33:02.952Z,18.61
2022-10-05T09:35:47.707Z,18.77
2022-10-05T09:38:32.492Z,18.75
2022-10-05T09:41:17.450Z,18.92
2022-10-05T09:44:02.419Z,18.88
2022-10-05T09:46:47.295Z,19.00
2022-10-05T09:49:32.307Z,18.93
2022-10-05T09:52:19.067Z,19.11
2022-10-05T09:55:04.281Z,19.34
2022-10-05T09:57:50.895Z,19.32
2022-10-05T10:00:38.360Z,19.47
2022-10-05T10:03:23.479Z,19.53
2022-10-05T10:06:08.283Z,19.57
2022-10-05T10:08:53.054Z,19.60
2022-10-05T10:11:37.690Z,19.55
2022-10-05T10:14:22.435Z,19.63
2022-10-05T10:17:07.279Z,19.68
2022-10-05T10:19:52.190Z,19.74
2022-10-05T10:22:42.211Z,19.63
2022-10-05T10:25:27.677Z,19.37
2022-10-05T10:28:12.484Z,19.41
2022-10-05T10:30:57.339Z,19.54
2022-10-05T10:33:42.052Z,19.71
2022-10-05T10:36:26.843Z,19.91
2022-10-05T10:39:11.480Z,20.02
2022-10-05T10:41:56.266Z,20.18
2022-10-05T10:44:40.969Z,20.13
2022-10-05T10:47:26.975Z,19.94
2022-10-05T10:50:11.928Z,19.95
2022-10-05T10:52:56.733Z,19.98
2022-10-05T10:55:41.463Z,20.02
2022-10-05T10:58:26.362Z,19.95
2022-10-05T11:01:11.044Z,19.93
2022-10-05T11:03:55.726Z,19.89
2022-10-05T11:06:40.354Z,19.93
2022-10-05T11:09:25.100Z,19.87
2022-10-05T11:12:09.974Z,19.79
2022-10-05T11:14:54.623Z,19.70
2022-10-05T11:17:39.459Z,19.78
2022-10-05T11:20:24.246Z,20.05
2022-10-05T11:23:09.057Z,20.28
2022-10-05T11:25:53.930Z,20.46
2022-10-05T11:28:38.781Z,20.23
2022-10-05T11:31:24.034Z,20.30
2022-10-05T11:34:08.592Z,20.21
2022-10-05T11:36:53.522Z,20.33
2022-10-05T11:39:38.300Z,20.31
2022-10-05T11:42:23.081Z,20.46
2022-10-05T11:45:07.743Z,20.73
2022-10-05T11:47:52.552Z,20.86
2022-10-05T11:50:37.429Z,20.94
2022-10-05T11:53:22.275Z,21.04
2022-10-05T11:56:07.121Z,21.05
2022-10-05T11:58:51.876Z,21.15
2022-10-05T12:01:36.643Z,21.20
2022-10-05T12:04:21.322Z,21.02
2022-10-05T12:07:06.221Z,20.97
2022-10-05T12:09:51.243Z,21.05
2022-10-05T12:12:36.083Z,21.04
2022-10-05T12:15:20.898Z,21.06
2022-10-05T12:18:05.623Z,21.13
2022-10-05T12:20:50.469Z,21.17
2022-10-05T12:23:35.229Z,21.14
2022-10-05T12:26:20.086Z,21.10
2022-10-05T12:29:04.879Z,21.10
2022-10-05T12:31:49.577Z,21.18
2022-10-05T12:34:34.185Z,21.26
2022-10-05T12:37:19.027Z,21.23
2022-10-05T12:40:03.682Z,21.26
2022-10-05T12:42:48.468Z,21.28
2022-10-05T12:45:33.267Z,21.27
2022-10-05T12:48:18.114Z,21.19
2022-10-05T12:51:02.890Z,21.17
2022-10-05T12:53:47.488Z,21.13
2022-10-05T12:56:32.222Z,21.11
2022-10-05T12:59:16.889Z,21.05
2022-10-05T13:02:01.837Z,21.10
2022-10-05T13:04:46.492Z,21.07
2022-10-05T13:07:31.460Z,21.03
2022-10-05T13:10:16.194Z,20.90
2022-10-05T13:13:00.957Z,20.86
2022-10-05T13:15:45.760Z,20.88
2022-10-05T13:18:30.437Z,20.91
2022-10-05T13:21:15.267Z,21.01
2022-10-05T13:24:00.040Z,21.02
2022-10-05T13:26:44.763Z,20.94
2022-10-05T13:29:29.537Z,20.88
2022-10-05T13:32:14.389Z,20.95
2022-10-05T13:34:59.140Z,20.91
2022-10-05T13:37:43.977Z,20.92
2022-10-05T13:40:28.802Z,20.92
2022-10-05T13:43:13.413Z,20.99
2022-10-05T13:45:58.189Z,21.06
2022-10-05T13:48:42.919Z,21.08
2022-10-05T13:51:27.746Z,20.98
2022-10-05T13:54:12.530Z,20.96
2022-10-05T13:56:57.323Z,20.99
2022-10-05T13:59:41.973Z,21.05
2022-10-05T14:02:26.934Z,20.92
2022-10-05T14:05:11.561Z,20.77
2022-10-05T14:07:56.331Z,20.59
2022-10-05T14:10:41.003Z,20.59
2022-10-05T14:13:25.778Z,20.56
2022-10-05T14:16:10.544Z,20.61
2022-10-05T14:18:55.296Z,20.67
2022-10-05T14:21:40.131Z,20.71
2022-10-05T14:24:42.802Z,20.74
2022-10-05T14:27:28.896Z,20.70
2022-10-05T14:30:13.681Z,20.71
2022-10-05T14:32:58.523Z,20.71
2022-10-05T14:35:43.410Z,20.75
2022-10-05T14:38:28.184Z,20.77
2022-10-05T14:41:13.410Z,20.75
2022-10-05T14:43:58.330Z,20.74
2022-10-05T14:46:43.271Z,20.71
2022-10-05T14:49:28.062Z,20.65
2022-10-05T14:52:13.306Z,20.59
2022-10-05T14:54:58.109Z,20.55
2022-10-05T14:57:42.961Z,20.48
2022-10-05T15:00:27.897Z,20.42
2022-10-05T15:03:12.675Z,20.26
2022-10-05T15:05:57.522Z,20.10
2022-10-05T15:08:42.129Z,19.98
2022-10-05T15:11:27.005Z,19.93
2022-10-05T15:14:11.757Z,19.85
2022-10-05T15:16:56.771Z,19.76
2022-10-05T15:19:41.853Z,19.62
2022-10-05T15:22:26.710Z,19.53
2022-10-05T15:25:11.451Z,19.50
2022-10-05T15:27:56.153Z,19.51
2022-10-05T15:30:41.087Z,19.51
2022-10-05T15:33:25.686Z,19.53
2022-10-05T15:36:10.442Z,19.55
2022-10-05T15:39:00.105Z,19.46
2022-10-05T15:41:45.705Z,19.43
2022-10-05T15:44:30.988Z,19.29
2022-10-05T15:47:15.663Z,19.16
2022-10-05T15:50:00.566Z,19.09
2022-10-05T15:52:45.244Z,18.95
2022-10-05T15:55:29.989Z,18.94
2022-10-05T15:58:14.712Z,18.82
2022-10-05T16:00:59.588Z,18.72
2022-10-05T16:03:44.465Z,18.67
2022-10-05T16:06:29.481Z,18.63
2022-10-05T16:09:14.247Z,18.58
2022-10-05T16:11:59.036Z,18.43
2022-10-05T16:14:43.804Z,18.30
2022-10-05T16:17:28.565Z,18.24
2022-10-05T16:20:13.416Z,18.29
2022-10-05T16:22:58.082Z,18.28
2022-10-05T16:25:42.836Z,18.20
2022-10-05T16:28:27.743Z,18.23
2022-10-05T16:31:12.848Z,18.23
2022-10-05T16:33:57.644Z,18.20
2022-10-05T16:36:42.407Z,18.21
2022-10-05T16:39:27.223Z,18.27
2022-10-05T16:42:11.883Z,18.26
2022-10-05T16:44:56.659Z,18.21
2022-10-05T16:47:41.366Z,18.09
2022-10-05T16:50:26.160Z,17.97
2022-10-05T16:53:10.835Z,17.87
2022-10-05T16:55:55.701Z,17.65
2022-10-05T16:58:40.487Z,17.45
2022-10-05T17:01:25.189Z,17.26
2022-10-05T17:04:09.908Z,17.28
2022-10-05T17:06:54.769Z,17.25
2022-10-05T17:09:39.648Z,17.17
2022-10-05T17:12:24.365Z,17.06
2022-10-05T17:15:09.182Z,17.10
2022-10-05T17:17:53.877Z,17.13
2022-10-05T17:20:42.490Z,17.13
2022-10-05T17:23:27.896Z,17.06
2022-10-05T17:26:12.560Z,16.96
2022-10-05T17:28:57.262Z,16.92
2022-10-05T17:31:41.954Z,16.98
2022-10-05T17:34:26.871Z,17.09
2022-10-05T17:37:11.561Z,16.99
2022-10-05T17:39:56.351Z,16.87
2022-10-05T17:42:41.082Z,16.69
2022-10-05T17:45:25.926Z,16.69
2022-10-05T17:48:11.135Z,16.73
2022-10-05T17:50:55.877Z,16.73
2022-10-05T17:53:40.710Z,16.74
2022-10-05T17:56:25.487Z,16.71
2022-10-05T17:59:10.239Z,16.71
2022-10-05T18:01:54.977Z,16.69
2022-10-05T18:04:39.542Z,16.71
2022-10-05T18:07:24.255Z,16.71
2022-10-05T18:10:09.002Z,16.68
2022-10-05T18:12:53.680Z,16.59
2022-10-05T18:15:38.602Z,16.48
2022-10-05T18:18:23.619Z,16.48
2022-10-05T18:21:08.567Z,16.55
2022-10-05T18:23:53.431Z,16.52
2022-10-05T18:26:38.010Z,16.50
2022-10-05T18:29:22.775Z,16.59
2022-10-05T18:32:07.471Z,16.48
2022-10-05T18:34:52.287Z,16.41
2022-10-05T18:37:37.461Z,16.48
2022-10-05T18:40:22.198Z,16.44
2022-10-05T18:43:07.232Z,16.40
2022-10-05T18:45:51.913Z,16.33
2022-10-05T18:48:36.835Z,16.35
2022-10-05T18:51:33.922Z,16.38
2022-10-05T18:54:19.162Z,16.33
2022-10-05T18:57:04.137Z,16.27
2022-10-05T18:59:49.144Z,16.27
2022-10-05T19:02:33.896Z,16.24
2022-10-05T19:05:43.069Z,16.17
2022-10-05T19:08:23.974Z,16.11
2022-10-05T19:11:08.958Z,16.03
2022-10-05T19:13:53.737Z,15.94
2022-10-05T19:16:38.429Z,15.85
2022-10-05T19:19:29.447Z,15.86
2022-10-05T19:22:17.201Z,15.83
2022-10-05T19:25:01.962Z,15.90
2022-10-05T19:27:46.631Z,15.88
2022-10-05T19:30:31.485Z,15.89
2022-10-05T19:33:16.211Z,15.87
2022-10-05T19:36:01.182Z,15.82
2022-10-05T19:38:45.840Z,15.80
2022-10-05T19:41:30.652Z,15.78
2022-10-05T19:44:15.287Z,15.77
2022-10-05T19:47:00.011Z,15.75
2022-10-05T19:49:45.203Z,15.75
2022-10-05T19:52:30.235Z,15.72
2022-10-05T19:55:14.967Z,15.65
2022-10-05T19:57:59.688Z,15.64
2022-10-05T20:00:44.595Z,15.64
2022-10-05T20:03:29.285Z,15.64
2022-10-05T20:06:14.241Z,15.69
2022-10-05T20:08:58.962Z,15.71
2022-10-05T20:11:43.693Z,15.62
2022-10-05T20:14:28.442Z,15.65
2022-10-05T20:17:13.121Z,15.61
2022-10-05T20:19:57.855Z,15.64
2022-10-05T20:22:42.710Z,15.53
2022-10-05T20:25:27.522Z,15.53
2022-10-05T20:28:12.274Z,15.57
2022-10-05T20:30:57.051Z,15.55
2022-10-05T20:33:41.662Z,15.46
2022-10-05T20:36:26.436Z,15.38
2022-10-05T20:39:11.193Z,15.30
2022-10-05T20:41:56.158Z,15.25
2022-10-05T20:44:41.024Z,15.23
2022-10-05T20:47:25.900Z,15.20
2022-10-05T20:50:10.606Z,15.18
2022-10-05T20:52:55.894Z,15.14
2022-10-05T20:55:40.676Z,15.07
2022-10-05T20:58:25.920Z,15.01
2022-10-05T21:01:10.862Z,15.01
2022-10-05T21:03:55.489Z,14.97
2022-10-05T21:06:40.357Z,14.96
2022-10-05T21:09:25.022Z,14.92
2022-10-05T21:12:09.878Z,14.87
2022-10-05T21:14:54.483Z,14.86
2022-10-05T21:17:39.284Z,14.83
2022-10-05T21:20:23.996Z,14.76
2022-10-05T21:23:08.713Z,14.72
2022-10-05T21:25:53.552Z,14.68
2022-10-05T21:28:38.431Z,14.65
2022-10-05T21:31:23.802Z,14.66
2022-10-05T21:34:08.450Z,14.63
2022-10-05T21:36:53.161Z,14.61
2022-10-05T21:39:37.923Z,14.53
2022-10-05T21:42:23.582Z,14.48
2022-10-05T21:45:08.530Z,14.43
2022-10-05T21:47:53.280Z,14.38
2022-10-05T21:50:38.180Z,14.33
2022-10-05T21:53:22.861Z,14.32
2022-10-05T21:56:07.718Z,14.31
2022-10-05T21:58:52.452Z,14.29
2022-10-05T22:01:37.458Z,14.28
2022-10-05T22:04:22.100Z,14.27
2022-10-05T22:07:06.894Z,14.33
2022-10-05T22:09:51.567Z,14.32
2022-10-05T22:12:36.353Z,14.31
2022-10-05T22:15:21.150Z,14.26
2022-10-05T22:18:05.821Z,14.20
2022-10-05T22:20:50.621Z,14.17
2022-10-05T22:23:35.411Z,14.15
2022-10-05T22:26:20.170Z,14.12
2022-10-05T22:29:04.905Z,14.11
2022-10-05T22:31:49.685Z,14.13
2022-10-05T22:34:34.498Z,14.10
2022-10-05T22:37:19.210Z,14.10
2022-10-05T22:40:03.980Z,14.09
2022-10-05T22:42:48.713Z,14.07
2022-10-05T22:45:33.597Z,14.06
2022-10-05T22:48:18.860Z,14.03
2022-10-05T22:51:03.647Z,14.02
2022-10-05T22:53:48.387Z,13.99
2022-10-05T22:56:33.117Z,13.92
2022-10-05T22:59:17.841Z,13.87
2022-10-05T23:02:02.658Z,13.86
2022-10-05T23:04:47.821Z,13.81
2022-10-05T23:07:32.678Z,13.78
2022-10-05T23:10:17.352Z,13.76
2022-10-05T23:13:02.010Z,13.76
2022-10-05T23:15:46.772Z,13.78
2022-10-05T23:18:31.899Z,13.77
2022-10-05T23:21:16.940Z,13.75
2022-10-05T23:24:01.527Z,13.76
2022-10-05T23:26:46.440Z,13.80
2022-10-05T23:29:31.282Z,13.79
2022-10-05T23:32:16.000Z,13.77
2022-10-05T23:35:00.750Z,13.76
2022-10-05T23:37:45.442Z,13.74
2022-10-05T23:40:30.141Z,13.70
2022-10-05T23:43:14.939Z,13.64
2022-10-05T23:45:59.758Z,13.61
2022-10-05T23:48:44.533Z,13.57
2022-10-05T23:51:29.429Z,13.52
2022-10-05T23:54:14.188Z,13.44
2022-10-05T23:56:59.159Z,13.39
2022-10-05T23:59:43.734Z,13.39
